createdAt,value
2022-11-03T00:00:02.101Z,180
2022-11-03T00:00:22.164Z,157.5
2022-11-03T00:00:42.216Z,180
2022-11-03T00:01:02.277Z,180
2022-11-03T00:01:22.416Z,180
2022-11-03T00:01:42.486Z,180
2022-11-03T00:02:02.772Z,157.5
2022-11-03T00:02:22.727Z,157.5
2022-11-03T00:02:42.644Z,180
2022-11-03T00:03:02.755Z,180
2022-11-03T00:03:22.675Z,180
2022-11-03T00:03:42.747Z,157.5
2022-11-03T00:04:02.794Z,180
2022-11-03T00:04:22.863Z,157.5
2022-11-03T00:04:42.912Z,157.5
2022-11-03T00:05:02.977Z,157.5
2022-11-03T00:05:23.045Z,157.5
2022-11-03T00:05:43.122Z,135
2022-11-03T00:06:03.156Z,135
2022-11-03T00:06:23.218Z,135
2022-11-03T00:06:43.278Z,112.5
2022-11-03T00:07:03.349Z,157.5
2022-11-03T00:07:23.397Z,180
2022-11-03T00:07:43.445Z,180
2022-11-03T00:08:03.607Z,157.5
2022-11-03T00:08:23.596Z,180
2022-11-03T00:08:43.669Z,180
2022-11-03T00:09:03.724Z,157.5
2022-11-03T00:09:23.783Z,135
2022-11-03T00:09:43.824Z,112.5
2022-11-03T00:10:03.905Z,112.5
2022-11-03T00:10:23.958Z,112.5
2022-11-03T00:10:44.020Z,112.5
2022-11-03T00:11:04.082Z,157.5
2022-11-03T00:11:24.147Z,180
2022-11-03T00:11:44.219Z,202.5
2022-11-03T00:12:04.279Z,180
2022-11-03T00:12:24.322Z,135
2022-11-03T00:12:44.370Z,135
2022-11-03T00:13:04.923Z,135
2022-11-03T00:13:24.501Z,135
2022-11-03T00:13:44.548Z,135
2022-11-03T00:14:04.622Z,135
2022-11-03T00:14:24.660Z,112.5
2022-11-03T00:14:44.739Z,112.5
2022-11-03T00:15:04.803Z,112.5
2022-11-03T00:15:24.865Z,112.5
2022-11-03T00:15:44.924Z,112.5
2022-11-03T00:16:04.990Z,112.5
2022-11-03T00:16:25.040Z,135
2022-11-03T00:16:45.109Z,135
2022-11-03T00:17:05.163Z,112.5
2022-11-03T00:17:25.221Z,112.5
2022-11-03T00:17:45.293Z,112.5
2022-11-03T00:18:05.343Z,135
2022-11-03T00:18:25.402Z,135
2022-11-03T00:18:45.474Z,135
2022-11-03T00:19:05.573Z,135
2022-11-03T00:19:25.600Z,135
2022-11-03T00:19:45.623Z,135
2022-11-03T00:20:05.698Z,135
2022-11-03T00:20:25.759Z,135
2022-11-03T00:20:45.822Z,180
2022-11-03T00:21:05.871Z,180
2022-11-03T00:21:25.950Z,157.5
2022-11-03T00:21:46.014Z,157.5
2022-11-03T00:22:06.069Z,135
2022-11-03T00:22:26.125Z,112.5
2022-11-03T00:22:46.180Z,112.5
2022-11-03T00:23:06.574Z,135
2022-11-03T00:23:26.303Z,112.5
2022-11-03T00:23:46.355Z,112.5
2022-11-03T00:24:06.397Z,135
2022-11-03T00:24:26.488Z,112.5
2022-11-03T00:24:46.552Z,135
2022-11-03T00:25:06.619Z,135
2022-11-03T00:25:26.681Z,135
2022-11-03T00:25:46.735Z,135
2022-11-03T00:26:06.803Z,157.5
2022-11-03T00:26:26.851Z,180
2022-11-03T00:26:46.926Z,157.5
2022-11-03T00:27:06.996Z,157.5
2022-11-03T00:27:27.097Z,157.5
2022-11-03T00:27:47.182Z,180
2022-11-03T00:28:07.267Z,157.5
2022-11-03T00:28:27.329Z,157.5
2022-11-03T00:28:47.415Z,135
2022-11-03T00:29:07.487Z,112.5
2022-11-03T00:29:27.574Z,112.5
2022-11-03T00:29:47.627Z,135
2022-11-03T00:30:07.650Z,135
2022-11-03T00:30:27.741Z,157.5
2022-11-03T00:30:47.826Z,135
2022-11-03T00:31:07.839Z,112.5
2022-11-03T00:31:27.895Z,112.5
2022-11-03T00:31:47.974Z,112.5
2022-11-03T00:32:08.050Z,112.5
2022-11-03T00:32:28.101Z,112.5
2022-11-03T00:32:48.185Z,112.5
2022-11-03T00:33:08.621Z,112.5
2022-11-03T00:33:28.332Z,90
2022-11-03T00:33:48.400Z,112.5
2022-11-03T00:34:08.464Z,135
2022-11-03T00:34:28.510Z,135
2022-11-03T00:34:48.596Z,157.5
2022-11-03T00:35:08.659Z,135
2022-11-03T00:35:28.718Z,112.5
2022-11-03T00:35:48.800Z,135
2022-11-03T00:36:08.845Z,157.5
2022-11-03T00:36:28.915Z,180
2022-11-03T00:36:48.978Z,157.5
2022-11-03T00:37:09.055Z,135
2022-11-03T00:37:29.109Z,112.5
2022-11-03T00:37:49.176Z,90
2022-11-03T00:38:09.237Z,90
2022-11-03T00:38:29.285Z,135
2022-11-03T00:38:49.354Z,135
2022-11-03T00:39:09.439Z,135
2022-11-03T00:39:29.504Z,135
2022-11-03T00:39:49.567Z,157.5
2022-11-03T00:40:09.614Z,180
2022-11-03T00:40:29.680Z,180
2022-11-03T00:40:49.759Z,157.5
2022-11-03T00:41:09.834Z,135
2022-11-03T00:41:29.902Z,135
2022-11-03T00:41:49.965Z,112.5
2022-11-03T00:42:10.049Z,135
2022-11-03T00:42:30.097Z,157.5
2022-11-03T00:42:50.159Z,157.5
2022-11-03T00:43:10.222Z,157.5
2022-11-03T00:43:30.293Z,180
2022-11-03T00:43:50.348Z,180
2022-11-03T00:44:10.509Z,157.5
2022-11-03T00:44:30.481Z,135
2022-11-03T00:44:50.551Z,135
2022-11-03T00:45:10.615Z,157.5
2022-11-03T00:45:30.722Z,180
2022-11-03T00:45:50.739Z,202.5
2022-11-03T00:46:10.844Z,180
2022-11-03T00:46:30.865Z,157.5
2022-11-03T00:46:50.937Z,157.5
2022-11-03T00:47:10.987Z,157.5
2022-11-03T00:47:31.051Z,135
2022-11-03T00:47:51.134Z,112.5
2022-11-03T00:48:11.193Z,112.5
2022-11-03T00:48:31.248Z,112.5
2022-11-03T00:48:51.314Z,112.5
2022-11-03T00:49:11.385Z,157.5
2022-11-03T00:49:31.451Z,157.5
2022-11-03T00:49:51.519Z,135
2022-11-03T00:50:11.572Z,135
2022-11-03T00:50:31.653Z,157.5
2022-11-03T00:50:51.697Z,112.5
2022-11-03T00:51:11.765Z,112.5
2022-11-03T00:51:31.840Z,112.5
2022-11-03T00:51:51.895Z,90
2022-11-03T00:52:11.955Z,135
2022-11-03T00:52:32.025Z,112.5
2022-11-03T00:52:52.088Z,112.5
2022-11-03T00:53:12.155Z,112.5
2022-11-03T00:53:32.183Z,135
2022-11-03T00:53:52.235Z,135
2022-11-03T00:54:12.323Z,157.5
2022-11-03T00:54:32.385Z,157.5
2022-11-03T00:54:55.198Z,135
2022-11-03T00:55:12.526Z,135
2022-11-03T00:55:32.598Z,157.5
2022-11-03T00:55:52.658Z,135
2022-11-03T00:56:12.726Z,135
2022-11-03T00:56:32.798Z,112.5
2022-11-03T00:56:52.847Z,112.5
2022-11-03T00:57:12.909Z,135
2022-11-03T00:57:32.995Z,135
2022-11-03T00:57:53.041Z,157.5
2022-11-03T00:58:13.119Z,135
2022-11-03T00:58:33.180Z,135
2022-11-03T00:58:53.248Z,135
2022-11-03T00:59:13.319Z,135
2022-11-03T00:59:33.377Z,112.5
2022-11-03T00:59:53.437Z,135
2022-11-03T01:00:13.498Z,135
2022-11-03T01:00:33.554Z,135
2022-11-03T01:00:53.683Z,112.5
2022-11-03T01:01:13.827Z,112.5
2022-11-03T01:01:33.942Z,112.5
2022-11-03T01:01:53.931Z,112.5
2022-11-03T01:02:14.072Z,135
2022-11-03T01:02:34.008Z,135
2022-11-03T01:02:54.007Z,157.5
2022-11-03T01:03:14.067Z,135
2022-11-03T01:03:34.145Z,135
2022-11-03T01:03:54.215Z,112.5
2022-11-03T01:04:14.249Z,112.5
2022-11-03T01:04:34.306Z,112.5
2022-11-03T01:04:54.376Z,112.5
2022-11-03T01:05:14.440Z,90
2022-11-03T01:05:34.519Z,90
2022-11-03T01:05:54.559Z,112.5
2022-11-03T01:06:14.636Z,135
2022-11-03T01:06:34.691Z,135
2022-11-03T01:06:54.774Z,135
2022-11-03T01:07:14.833Z,135
2022-11-03T01:07:34.901Z,112.5
2022-11-03T01:07:55.066Z,112.5
2022-11-03T01:08:15.019Z,112.5
2022-11-03T01:08:35.084Z,90
2022-11-03T01:08:55.163Z,90
2022-11-03T01:09:15.205Z,112.5
2022-11-03T01:09:35.290Z,112.5
2022-11-03T01:09:55.348Z,112.5
2022-11-03T01:10:15.402Z,112.5
2022-11-03T01:10:35.472Z,112.5
2022-11-03T01:10:55.522Z,112.5
2022-11-03T01:11:15.603Z,112.5
2022-11-03T01:11:35.668Z,112.5
2022-11-03T01:11:55.723Z,135
2022-11-03T01:12:15.787Z,135
2022-11-03T01:12:35.863Z,135
2022-11-03T01:12:55.914Z,157.5
2022-11-03T01:13:15.976Z,180
2022-11-03T01:13:36.036Z,180
2022-11-03T01:13:56.120Z,202.5
2022-11-03T01:14:16.179Z,247.5
2022-11-03T01:14:36.251Z,202.5
2022-11-03T01:14:56.302Z,180
2022-11-03T01:15:16.358Z,180
2022-11-03T01:15:36.418Z,225
2022-11-03T01:15:56.492Z,180
2022-11-03T01:16:16.564Z,225
2022-11-03T01:16:36.619Z,225
2022-11-03T01:16:56.688Z,157.5
2022-11-03T01:17:16.751Z,135
2022-11-03T01:17:36.814Z,180
2022-11-03T01:17:56.868Z,202.5
2022-11-03T01:18:16.947Z,180
2022-11-03T01:18:37.018Z,180
2022-11-03T01:18:57.095Z,180
2022-11-03T01:19:17.134Z,157.5
2022-11-03T01:19:37.184Z,157.5
2022-11-03T01:19:57.253Z,135
2022-11-03T01:20:17.308Z,112.5
2022-11-03T01:20:37.386Z,112.5
2022-11-03T01:20:57.443Z,112.5
2022-11-03T01:21:17.549Z,112.5
2022-11-03T01:21:37.583Z,135
2022-11-03T01:21:57.654Z,135
2022-11-03T01:22:17.714Z,135
2022-11-03T01:22:37.786Z,112.5
2022-11-03T01:22:57.855Z,112.5
2022-11-03T01:23:17.915Z,112.5
2022-11-03T01:23:37.977Z,112.5
2022-11-03T01:23:58.054Z,112.5
2022-11-03T01:24:18.115Z,112.5
2022-11-03T01:24:38.152Z,112.5
2022-11-03T01:24:58.239Z,112.5
2022-11-03T01:25:18.313Z,112.5
2022-11-03T01:25:38.376Z,112.5
2022-11-03T01:25:58.442Z,112.5
2022-11-03T01:26:18.503Z,135
2022-11-03T01:26:38.565Z,135
2022-11-03T01:26:58.643Z,135
2022-11-03T01:27:18.713Z,157.5
2022-11-03T01:27:38.771Z,135
2022-11-03T01:27:58.869Z,112.5
2022-11-03T01:28:18.866Z,112.5
2022-11-03T01:28:38.941Z,135
2022-11-03T01:28:59.012Z,135
2022-11-03T01:29:19.075Z,112.5
2022-11-03T01:29:39.156Z,112.5
2022-11-03T01:29:59.218Z,90
2022-11-03T01:30:19.275Z,112.5
2022-11-03T01:30:39.341Z,112.5
2022-11-03T01:30:59.409Z,112.5
2022-11-03T01:31:19.465Z,112.5
2022-11-03T01:31:39.526Z,112.5
2022-11-03T01:31:59.597Z,112.5
2022-11-03T01:32:19.653Z,112.5
2022-11-03T01:32:39.739Z,112.5
2022-11-03T01:32:59.780Z,90
2022-11-03T01:33:19.845Z,90
2022-11-03T01:33:39.900Z,112.5
2022-11-03T01:33:59.976Z,112.5
2022-11-03T01:34:20.037Z,112.5
2022-11-03T01:34:40.095Z,112.5
2022-11-03T01:35:00.158Z,112.5
2022-11-03T01:35:20.223Z,112.5
2022-11-03T01:35:40.300Z,112.5
2022-11-03T01:36:00.376Z,112.5
2022-11-03T01:36:20.431Z,90
2022-11-03T01:36:40.485Z,112.5
2022-11-03T01:37:00.539Z,157.5
2022-11-03T01:37:20.629Z,135
2022-11-03T01:37:40.690Z,135
2022-11-03T01:38:00.749Z,180
2022-11-03T01:38:20.785Z,202.5
2022-11-03T01:38:40.875Z,135
2022-11-03T01:39:00.944Z,112.5
2022-11-03T01:39:21.005Z,112.5
2022-11-03T01:39:41.189Z,112.5
2022-11-03T01:40:01.147Z,135
2022-11-03T01:40:21.219Z,135
2022-11-03T01:40:41.260Z,112.5
2022-11-03T01:41:01.328Z,112.5
2022-11-03T01:41:21.392Z,112.5
2022-11-03T01:41:41.458Z,135
2022-11-03T01:42:01.503Z,135
2022-11-03T01:42:21.595Z,112.5
2022-11-03T01:42:41.642Z,112.5
2022-11-03T01:43:01.702Z,135
2022-11-03T01:43:21.745Z,135
2022-11-03T01:43:41.822Z,157.5
2022-11-03T01:44:01.858Z,157.5
2022-11-03T01:44:21.949Z,135
2022-11-03T01:44:42.015Z,135
2022-11-03T01:45:02.066Z,112.5
2022-11-03T01:45:22.152Z,112.5
2022-11-03T01:45:42.199Z,135
2022-11-03T01:46:02.287Z,135
2022-11-03T01:46:22.345Z,135
2022-11-03T01:46:42.413Z,135
2022-11-03T01:47:02.476Z,135
2022-11-03T01:47:22.541Z,135
2022-11-03T01:47:42.592Z,157.5
2022-11-03T01:48:02.687Z,157.5
2022-11-03T01:48:22.725Z,135
2022-11-03T01:48:42.804Z,135
2022-11-03T01:49:02.879Z,135
2022-11-03T01:49:22.965Z,135
2022-11-03T01:49:43.028Z,135
2022-11-03T01:50:03.121Z,135
2022-11-03T01:50:23.195Z,112.5
2022-11-03T01:50:43.260Z,112.5
2022-11-03T01:51:03.314Z,112.5
2022-11-03T01:51:23.380Z,112.5
2022-11-03T01:51:43.474Z,112.5
2022-11-03T01:52:03.532Z,112.5
2022-11-03T01:52:23.608Z,112.5
2022-11-03T01:52:43.693Z,112.5
2022-11-03T01:53:04.013Z,112.5
2022-11-03T01:53:23.833Z,112.5
2022-11-03T01:53:43.893Z,112.5
2022-11-03T01:54:04.000Z,112.5
2022-11-03T01:54:24.061Z,112.5
2022-11-03T01:54:44.152Z,112.5
2022-11-03T01:55:04.206Z,112.5
2022-11-03T01:55:24.320Z,112.5
2022-11-03T01:55:44.396Z,112.5
2022-11-03T01:56:04.490Z,135
2022-11-03T01:56:24.554Z,135
2022-11-03T01:56:44.621Z,112.5
2022-11-03T01:57:04.674Z,112.5
2022-11-03T01:57:24.770Z,112.5
2022-11-03T01:57:44.829Z,112.5
2022-11-03T01:58:04.908Z,112.5
2022-11-03T01:58:24.985Z,112.5
2022-11-03T01:58:45.035Z,112.5
2022-11-03T01:59:05.090Z,112.5
2022-11-03T01:59:25.152Z,112.5
2022-11-03T01:59:45.200Z,135
2022-11-03T02:00:05.303Z,157.5
2022-11-03T02:00:25.314Z,157.5
2022-11-03T02:00:45.436Z,157.5
2022-11-03T02:01:05.554Z,157.5
2022-11-03T02:01:25.675Z,135
2022-11-03T02:01:45.659Z,135
2022-11-03T02:02:05.785Z,135
2022-11-03T02:02:25.773Z,135
2022-11-03T02:02:45.762Z,135
2022-11-03T02:03:06.274Z,135
2022-11-03T02:03:25.868Z,157.5
2022-11-03T02:03:45.935Z,135
2022-11-03T02:04:06.000Z,135
2022-11-03T02:04:26.079Z,135
2022-11-03T02:04:46.175Z,135
2022-11-03T02:05:06.226Z,135
2022-11-03T02:05:26.307Z,157.5
2022-11-03T02:05:46.359Z,135
2022-11-03T02:06:06.438Z,135
2022-11-03T02:06:26.516Z,157.5
2022-11-03T02:06:46.588Z,135
2022-11-03T02:07:06.628Z,135
2022-11-03T02:07:26.709Z,157.5
2022-11-03T02:07:46.845Z,112.5
2022-11-03T02:08:06.885Z,90
2022-11-03T02:08:26.952Z,90
2022-11-03T02:08:47.019Z,90
2022-11-03T02:09:07.063Z,67.5
2022-11-03T02:09:27.134Z,90
2022-11-03T02:09:47.184Z,112.5
2022-11-03T02:10:07.261Z,157.5
2022-11-03T02:10:27.365Z,157.5
2022-11-03T02:10:47.453Z,157.5
2022-11-03T02:11:07.521Z,225
2022-11-03T02:11:27.604Z,247.5
2022-11-03T02:11:47.681Z,247.5
2022-11-03T02:12:07.777Z,202.5
2022-11-03T02:12:27.833Z,202.5
2022-11-03T02:12:47.910Z,225
2022-11-03T02:13:08.297Z,247.5
2022-11-03T02:13:28.073Z,247.5
2022-11-03T02:13:48.154Z,270
2022-11-03T02:14:08.221Z,270
2022-11-03T02:14:28.273Z,270
2022-11-03T02:14:48.331Z,225
2022-11-03T02:15:08.427Z,202.5
2022-11-03T02:15:28.529Z,202.5
2022-11-03T02:15:48.581Z,202.5
2022-11-03T02:16:08.678Z,225
2022-11-03T02:16:28.755Z,225
2022-11-03T02:16:48.850Z,202.5
2022-11-03T02:17:08.887Z,180
2022-11-03T02:17:28.944Z,135
2022-11-03T02:17:49.015Z,112.5
2022-11-03T02:18:09.098Z,135
2022-11-03T02:18:29.183Z,135
2022-11-03T02:18:49.243Z,157.5
2022-11-03T02:19:09.310Z,135
2022-11-03T02:19:29.369Z,135
2022-11-03T02:19:49.433Z,157.5
2022-11-03T02:20:09.481Z,157.5
2022-11-03T02:20:29.544Z,180
2022-11-03T02:20:49.616Z,180
2022-11-03T02:21:09.667Z,180
2022-11-03T02:21:29.727Z,180
2022-11-03T02:21:49.778Z,180
2022-11-03T02:22:09.838Z,180
2022-11-03T02:22:29.907Z,202.5
2022-11-03T02:22:49.961Z,180
2022-11-03T02:23:10.324Z,202.5
2022-11-03T02:23:30.078Z,225
2022-11-03T02:23:50.139Z,225
2022-11-03T02:24:10.182Z,225
2022-11-03T02:24:30.249Z,225
2022-11-03T02:24:53.951Z,225
2022-11-03T02:25:10.365Z,202.5
2022-11-03T02:25:30.431Z,202.5
2022-11-03T02:25:50.498Z,202.5
2022-11-03T02:26:10.555Z,180
2022-11-03T02:26:30.606Z,180
2022-11-03T02:26:50.665Z,180
2022-11-03T02:27:10.726Z,225
2022-11-03T02:27:30.800Z,225
2022-11-03T02:27:50.859Z,247.5
2022-11-03T02:28:10.918Z,202.5
2022-11-03T02:28:30.964Z,247.5
2022-11-03T02:28:51.036Z,315
2022-11-03T02:29:11.123Z,315
2022-11-03T02:29:31.173Z,292.5
2022-11-03T02:29:51.227Z,270
2022-11-03T02:30:11.275Z,247.5
2022-11-03T02:30:31.347Z,270
2022-11-03T02:30:51.395Z,247.5
2022-11-03T02:31:11.451Z,202.5
2022-11-03T02:31:31.522Z,157.5
2022-11-03T02:31:51.590Z,180
2022-11-03T02:32:11.644Z,180
2022-11-03T02:32:31.707Z,202.5
2022-11-03T02:32:51.760Z,202.5
2022-11-03T02:33:11.847Z,202.5
2022-11-03T02:33:31.887Z,202.5
2022-11-03T02:33:51.918Z,202.5
2022-11-03T02:34:12.021Z,225
2022-11-03T02:34:32.069Z,202.5
2022-11-03T02:34:52.138Z,202.5
2022-11-03T02:35:12.194Z,202.5
2022-11-03T02:35:32.260Z,202.5
2022-11-03T02:35:52.295Z,202.5
2022-11-03T02:36:12.379Z,202.5
2022-11-03T02:36:32.436Z,225
2022-11-03T02:36:52.503Z,112.5
2022-11-03T02:37:12.567Z,90
2022-11-03T02:37:32.628Z,67.5
2022-11-03T02:37:52.687Z,45
2022-11-03T02:38:12.763Z,22.5
2022-11-03T02:38:32.794Z,90
2022-11-03T02:38:52.869Z,157.5
2022-11-03T02:39:12.928Z,180
2022-11-03T02:39:32.971Z,180
2022-11-03T02:39:53.049Z,157.5
2022-11-03T02:40:13.093Z,135
2022-11-03T02:40:33.156Z,112.5
2022-11-03T02:40:53.214Z,180
2022-11-03T02:41:13.277Z,270
2022-11-03T02:41:33.353Z,270
2022-11-03T02:41:53.396Z,225
2022-11-03T02:42:13.474Z,157.5
2022-11-03T02:42:33.533Z,90
2022-11-03T02:42:53.575Z,45
2022-11-03T02:43:13.646Z,90
2022-11-03T02:43:33.670Z,112.5
2022-11-03T02:43:53.737Z,112.5
2022-11-03T02:44:13.840Z,112.5
2022-11-03T02:44:33.898Z,112.5
2022-11-03T02:44:53.941Z,225
2022-11-03T02:45:17.308Z,292.5
2022-11-03T02:45:34.071Z,315
2022-11-03T02:45:54.138Z,315
2022-11-03T02:46:14.231Z,292.5
2022-11-03T02:46:34.268Z,292.5
2022-11-03T02:46:54.327Z,292.5
2022-11-03T02:47:14.397Z,270
2022-11-03T02:47:34.453Z,270
2022-11-03T02:47:54.517Z,225
2022-11-03T02:48:14.576Z,180
2022-11-03T02:48:34.626Z,157.5
2022-11-03T02:48:54.740Z,180
2022-11-03T02:49:14.773Z,202.5
2022-11-03T02:49:34.829Z,247.5
2022-11-03T02:50:14.936Z,270
2022-11-03T02:50:34.999Z,247.5
2022-11-03T02:50:55.058Z,247.5
2022-11-03T02:51:15.112Z,202.5
2022-11-03T02:51:35.175Z,157.5
2022-11-03T02:51:55.238Z,135
2022-11-03T02:52:15.294Z,135
2022-11-03T02:52:35.376Z,135
2022-11-03T02:52:55.426Z,135
2022-11-03T02:53:15.489Z,202.5
2022-11-03T02:53:35.562Z,270
2022-11-03T02:53:55.621Z,292.5
2022-11-03T02:54:15.668Z,315
2022-11-03T02:54:35.767Z,292.5
2022-11-03T02:54:55.789Z,202.5
2022-11-03T02:55:15.831Z,157.5
2022-11-03T02:55:35.893Z,135
2022-11-03T02:55:55.956Z,112.5
2022-11-03T02:56:16.022Z,112.5
2022-11-03T02:56:36.087Z,112.5
2022-11-03T02:56:56.152Z,90
2022-11-03T02:57:16.197Z,90
2022-11-03T02:57:36.277Z,67.5
2022-11-03T02:57:56.334Z,45
2022-11-03T02:58:16.400Z,90
2022-11-03T02:58:36.445Z,112.5
2022-11-03T02:58:56.522Z,135
2022-11-03T02:59:16.566Z,135
2022-11-03T02:59:36.630Z,135
2022-11-03T02:59:56.679Z,112.5
2022-11-03T03:00:16.728Z,112.5
2022-11-03T03:00:36.818Z,112.5
2022-11-03T03:00:56.961Z,112.5
2022-11-03T03:01:17.112Z,112.5
2022-11-03T03:01:37.329Z,112.5
2022-11-03T03:01:57.354Z,112.5
2022-11-03T03:02:17.171Z,135
2022-11-03T03:02:37.251Z,157.5
2022-11-03T03:02:57.250Z,135
2022-11-03T03:03:17.303Z,157.5
2022-11-03T03:03:37.365Z,157.5
2022-11-03T03:03:57.441Z,157.5
2022-11-03T03:04:17.495Z,180
2022-11-03T03:04:37.507Z,180
2022-11-03T03:04:57.561Z,202.5
2022-11-03T03:05:17.621Z,202.5
2022-11-03T03:05:37.689Z,225
2022-11-03T03:05:57.751Z,202.5
2022-11-03T03:06:17.800Z,225
2022-11-03T03:06:37.865Z,225
2022-11-03T03:06:57.960Z,247.5
2022-11-03T03:07:18.012Z,247.5
2022-11-03T03:07:38.056Z,225
2022-11-03T03:07:58.145Z,180
2022-11-03T03:08:18.204Z,157.5
2022-11-03T03:08:38.267Z,157.5
2022-11-03T03:08:58.325Z,157.5
2022-11-03T03:09:18.360Z,157.5
2022-11-03T03:09:38.431Z,180
2022-11-03T03:09:58.491Z,157.5
2022-11-03T03:10:18.547Z,157.5
2022-11-03T03:10:38.607Z,135
2022-11-03T03:10:58.668Z,135
2022-11-03T03:11:18.731Z,112.5
2022-11-03T03:11:39.400Z,157.5
2022-11-03T03:11:58.837Z,135
2022-11-03T03:12:18.882Z,135
2022-11-03T03:12:38.952Z,180
2022-11-03T03:12:59.017Z,202.5
2022-11-03T03:13:19.081Z,202.5
2022-11-03T03:13:39.172Z,225
2022-11-03T03:13:59.240Z,225
2022-11-03T03:14:19.282Z,225
2022-11-03T03:14:39.335Z,202.5
2022-11-03T03:14:59.394Z,202.5
2022-11-03T03:15:19.464Z,247.5
2022-11-03T03:15:39.542Z,270
2022-11-03T03:15:59.610Z,270
2022-11-03T03:16:19.653Z,292.5
2022-11-03T03:16:39.715Z,315
2022-11-03T03:16:59.762Z,337.5
2022-11-03T03:17:19.828Z,337.5
2022-11-03T03:17:39.897Z,337.5
2022-11-03T03:17:59.948Z,337.5
2022-11-03T03:18:20.008Z,337.5
2022-11-03T03:18:40.063Z,225
2022-11-03T03:19:00.120Z,135
2022-11-03T03:19:20.191Z,112.5
2022-11-03T03:19:40.250Z,112.5
2022-11-03T03:20:00.311Z,112.5
2022-11-03T03:20:20.373Z,90
2022-11-03T03:20:40.438Z,90
2022-11-03T03:21:00.498Z,90
2022-11-03T03:21:20.540Z,112.5
2022-11-03T03:21:40.624Z,135
2022-11-03T03:22:00.696Z,157.5
2022-11-03T03:22:20.742Z,135
2022-11-03T03:22:40.817Z,135
2022-11-03T03:23:00.865Z,157.5
2022-11-03T03:23:20.922Z,157.5
2022-11-03T03:23:40.984Z,157.5
2022-11-03T03:24:01.026Z,157.5
2022-11-03T03:24:21.087Z,157.5
2022-11-03T03:24:41.156Z,135
2022-11-03T03:25:01.221Z,135
2022-11-03T03:25:21.273Z,112.5
2022-11-03T03:25:41.348Z,112.5
2022-11-03T03:26:01.403Z,112.5
2022-11-03T03:26:21.470Z,112.5
2022-11-03T03:26:41.548Z,112.5
2022-11-03T03:27:01.600Z,90
2022-11-03T03:27:21.658Z,67.5
2022-11-03T03:27:41.697Z,67.5
2022-11-03T03:28:01.793Z,112.5
2022-11-03T03:28:21.864Z,135
2022-11-03T03:28:41.918Z,112.5
2022-11-03T03:29:01.972Z,112.5
2022-11-03T03:29:22.032Z,112.5
2022-11-03T03:29:42.103Z,135
2022-11-03T03:30:02.168Z,112.5
2022-11-03T03:30:22.221Z,112.5
2022-11-03T03:30:42.297Z,112.5
2022-11-03T03:31:02.361Z,135
2022-11-03T03:31:22.418Z,157.5
2022-11-03T03:31:42.479Z,157.5
2022-11-03T03:32:02.502Z,157.5
2022-11-03T03:32:22.589Z,157.5
2022-11-03T03:32:42.648Z,180
2022-11-03T03:33:02.715Z,157.5
2022-11-03T03:33:22.833Z,135
2022-11-03T03:33:46.565Z,112.5
2022-11-03T03:34:23.668Z,112.5
2022-11-03T03:34:34.775Z,112.5
2022-11-03T03:34:43.013Z,112.5
2022-11-03T03:35:03.073Z,112.5
2022-11-03T03:35:23.151Z,112.5
2022-11-03T03:35:43.191Z,112.5
2022-11-03T03:36:03.269Z,112.5
2022-11-03T03:36:23.313Z,112.5
2022-11-03T03:36:43.366Z,135
2022-11-03T03:37:03.424Z,135
2022-11-03T03:37:23.496Z,157.5
2022-11-03T03:37:43.563Z,157.5
2022-11-03T03:38:03.981Z,180
2022-11-03T03:38:23.672Z,180
2022-11-03T03:38:43.740Z,202.5
2022-11-03T03:39:03.787Z,225
2022-11-03T03:39:23.845Z,225
2022-11-03T03:39:43.929Z,247.5
2022-11-03T03:40:03.966Z,247.5
2022-11-03T03:40:24.028Z,247.5
2022-11-03T03:40:44.095Z,225
2022-11-03T03:41:09.525Z,202.5
2022-11-03T03:41:24.229Z,202.5
2022-11-03T03:41:44.287Z,202.5
2022-11-03T03:42:04.353Z,202.5
2022-11-03T03:42:24.400Z,247.5
2022-11-03T03:42:44.449Z,247.5
2022-11-03T03:43:04.531Z,202.5
2022-11-03T03:43:24.566Z,202.5
2022-11-03T03:43:44.663Z,202.5
2022-11-03T03:44:04.733Z,202.5
2022-11-03T03:44:24.804Z,225
2022-11-03T03:44:44.847Z,202.5
2022-11-03T03:45:04.907Z,202.5
2022-11-03T03:45:24.962Z,180
2022-11-03T03:45:45.029Z,202.5
2022-11-03T03:46:05.069Z,202.5
2022-11-03T03:46:25.127Z,202.5
2022-11-03T03:46:45.199Z,225
2022-11-03T03:47:05.266Z,225
2022-11-03T03:47:25.323Z,202.5
2022-11-03T03:47:45.383Z,202.5
2022-11-03T03:48:05.434Z,202.5
2022-11-03T03:48:25.469Z,180
2022-11-03T03:48:45.544Z,180
2022-11-03T03:49:05.614Z,180
2022-11-03T03:49:25.706Z,180
2022-11-03T03:49:45.768Z,180
2022-11-03T03:50:05.835Z,157.5
2022-11-03T03:50:25.889Z,157.5
2022-11-03T03:50:45.965Z,135
2022-11-03T03:51:06.017Z,135
2022-11-03T03:51:26.085Z,157.5
2022-11-03T03:51:46.140Z,157.5
2022-11-03T03:52:06.197Z,157.5
2022-11-03T03:52:26.254Z,180
2022-11-03T03:52:46.324Z,180
2022-11-03T03:53:06.398Z,180
2022-11-03T03:53:26.436Z,157.5
2022-11-03T03:53:46.490Z,157.5
2022-11-03T03:54:06.554Z,135
2022-11-03T03:54:26.606Z,135
2022-11-03T03:54:46.667Z,112.5
2022-11-03T03:55:06.730Z,135
2022-11-03T03:55:26.788Z,157.5
2022-11-03T03:55:46.882Z,157.5
2022-11-03T03:56:06.949Z,157.5
2022-11-03T03:56:27.004Z,157.5
2022-11-03T03:56:47.089Z,112.5
2022-11-03T03:57:07.166Z,112.5
2022-11-03T03:57:27.205Z,112.5
2022-11-03T03:57:47.272Z,135
2022-11-03T03:58:07.676Z,135
2022-11-03T03:58:27.378Z,135
2022-11-03T03:58:47.457Z,135
2022-11-03T03:59:07.511Z,157.5
2022-11-03T03:59:27.572Z,157.5
2022-11-03T03:59:47.625Z,157.5
2022-11-03T04:00:07.679Z,157.5
2022-11-03T04:00:27.764Z,135
2022-11-03T04:00:47.867Z,112.5
2022-11-03T04:01:07.927Z,112.5
2022-11-03T04:01:28.149Z,112.5
2022-11-03T04:01:48.183Z,135
2022-11-03T04:02:08.200Z,135
2022-11-03T04:02:28.258Z,112.5
2022-11-03T04:02:48.190Z,112.5
2022-11-03T04:03:08.232Z,135
2022-11-03T04:03:28.289Z,135
2022-11-03T04:03:48.368Z,135
2022-11-03T04:04:08.425Z,135
2022-11-03T04:04:28.484Z,157.5
2022-11-03T04:04:48.556Z,157.5
2022-11-03T04:05:08.613Z,157.5
2022-11-03T04:05:28.649Z,157.5
2022-11-03T04:05:48.698Z,157.5
2022-11-03T04:06:08.789Z,157.5
2022-11-03T04:06:28.872Z,157.5
2022-11-03T04:06:48.943Z,157.5
2022-11-03T04:07:09.001Z,180
2022-11-03T04:07:29.064Z,202.5
2022-11-03T04:07:49.129Z,225
2022-11-03T04:08:09.338Z,225
2022-11-03T04:08:29.237Z,225
2022-11-03T04:08:49.302Z,225
2022-11-03T04:09:09.362Z,202.5
2022-11-03T04:09:29.446Z,202.5
2022-11-03T04:09:49.485Z,202.5
2022-11-03T04:10:09.554Z,202.5
2022-11-03T04:10:29.620Z,202.5
2022-11-03T04:10:49.678Z,202.5
2022-11-03T04:11:09.742Z,202.5
2022-11-03T04:11:29.793Z,202.5
2022-11-03T04:11:49.849Z,202.5
2022-11-03T04:12:09.917Z,180
2022-11-03T04:12:29.963Z,202.5
2022-11-03T04:12:50.030Z,202.5
2022-11-03T04:13:10.092Z,202.5
2022-11-03T04:13:30.160Z,225
2022-11-03T04:13:50.199Z,225
2022-11-03T04:14:10.263Z,202.5
2022-11-03T04:14:30.320Z,202.5
2022-11-03T04:14:50.418Z,202.5
2022-11-03T04:15:10.451Z,225
2022-11-03T04:15:30.504Z,247.5
2022-11-03T04:15:50.591Z,270
2022-11-03T04:16:10.640Z,292.5
2022-11-03T04:16:30.714Z,292.5
2022-11-03T04:16:50.752Z,315
2022-11-03T04:17:10.774Z,315
2022-11-03T04:17:30.871Z,315
2022-11-03T04:17:50.932Z,292.5
2022-11-03T04:18:11.000Z,292.5
2022-11-03T04:18:31.056Z,292.5
2022-11-03T04:18:51.115Z,292.5
2022-11-03T04:19:11.179Z,292.5
2022-11-03T04:19:31.236Z,247.5
2022-11-03T04:19:51.303Z,202.5
2022-11-03T04:20:11.354Z,225
2022-11-03T04:20:31.404Z,270
2022-11-03T04:20:51.482Z,247.5
2022-11-03T04:21:11.547Z,225
2022-11-03T04:21:31.626Z,202.5
2022-11-03T04:21:51.666Z,180
2022-11-03T04:22:11.716Z,180
2022-11-03T04:22:31.786Z,180
2022-11-03T04:22:51.827Z,202.5
2022-11-03T04:23:11.873Z,202.5
2022-11-03T04:23:31.944Z,202.5
2022-11-03T04:23:52.011Z,180
2022-11-03T04:24:12.077Z,180
2022-11-03T04:24:32.127Z,180
2022-11-03T04:24:52.193Z,180
2022-11-03T04:25:12.250Z,180
2022-11-03T04:25:32.311Z,180
2022-11-03T04:25:52.364Z,180
2022-11-03T04:26:12.419Z,180
2022-11-03T04:26:32.488Z,157.5